KTE weather

Kerteh Airport
Kerteh, Terengganu, Malaysia

Public forecast

Using degrees Celsius for public forecast. Weather courtesy of forecast.io.

Current aviation weather report (METAR) for Kerteh Airport

Retrieved 2020/04/01 23:00 UTC (55 minutes ago):

WMKE 012300Z 00000KT 9000 FEW002 SCT015 25/25 Q1009

Aviation forecast (TAF) for Kerteh Airport

Retrieved 2020/04/01 18:00 UTC (6 hours ago):

TAF WMKE 011700Z 0118/0218 VRB03KT 9999 FEW016 BECMG 0201/0203 07005KT FEW014